Time;durP1;ratioP1;P1;durP2;ratioP2;P2;SDS_P1;SDS_P2;PMS_P1;PMS_P2;Temp;Humidity;BMP_temperature;BMP_pressure;BME280_temperature;BME280_humidity;BME280_pressure;Samples;Min_cycle;Max_cycle;Signal;HPM_P1;HPM_P2
2023/12/16 00:00:33;;;;;;;11.15;7.63;;;;;;;;;;5010858;28;20412;-71
2023/12/16 00:03:00;;;;;;;11.90;7.63;;;;;;;;;;5010691;28;20540;-71
2023/12/16 00:05:28;;;;;;;12.63;7.07;;;;;;;;;;5010058;28;20428;-71
2023/12/16 00:07:55;;;;;;;12.90;7.10;;;;;;;;;;5011186;28;20915;-72
2023/12/16 00:10:22;;;;;;;10.10;7.07;;;;;;;;;;5022161;28;20496;-72
2023/12/16 00:12:51;;;;;;;9.82;7.60;;;;;;;;;;5010271;28;20424;-71
2023/12/16 00:15:18;;;;;;;11.20;7.57;;;;;;;;;;5008889;28;20427;-71
2023/12/16 00:17:45;;;;;;;12.48;7.00;;;;;;;;;;4999374;28;20779;-72
2023/12/16 00:20:12;;;;;;;11.53;7.30;;;;;;;;;;5003755;28;20447;-71
2023/12/16 00:22:39;;;;;;;12.88;7.22;;;;;;;;;;5006835;28;20428;-72
2023/12/16 00:25:07;;;;;;;11.40;6.90;;;;;;;;;;5006450;28;20515;-71
2023/12/16 00:27:34;;;;;;;13.88;6.80;;;;;;;;;;5007398;28;20413;-70
2023/12/16 00:30:03;;;;;;;11.18;7.03;;;;;;;;;;5009601;28;20425;-71
2023/12/16 00:32:30;;;;;;;9.88;6.20;;;;;;;;;;5007809;28;20416;-71
2023/12/16 00:34:57;;;;;;;8.52;5.38;;;;;;;;;;5006557;28;20417;-71
2023/12/16 00:37:24;;;;;;;8.00;5.30;;;;;;;;;;5005457;28;20424;-71
2023/12/16 00:39:51;;;;;;;10.45;5.68;;;;;;;;;;5006302;28;20420;-71
2023/12/16 00:42:18;;;;;;;11.10;6.28;;;;;;;;;;5006185;28;20417;-72
2023/12/16 00:44:45;;;;;;;9.13;6.18;;;;;;;;;;4998744;28;20952;-71
2023/12/16 00:47:14;;;;;;;9.20;5.87;;;;;;;;;;5005111;28;20432;-71
2023/12/16 00:49:41;;;;;;;9.15;6.20;;;;;;;;;;5000117;28;20424;-71
2023/12/16 00:52:09;;;;;;;10.25;6.28;;;;;;;;;;5006564;28;20678;-73
2023/12/16 00:54:36;;;;;;;10.95;6.40;;;;;;;;;;4999758;28;20505;-71
2023/12/16 00:57:03;;;;;;;9.90;6.50;;;;;;;;;;5007086;28;20420;-71
2023/12/16 00:59:30;;;;;;;9.93;6.30;;;;;;;;;;5008130;28;20416;-71
2023/12/16 01:01:57;;;;;;;12.80;6.43;;;;;;;;;;5004897;28;20413;-71
2023/12/16 01:04:26;;;;;;;10.88;5.80;;;;;;;;;;5006162;28;20796;-70
2023/12/16 01:06:53;;;;;;;9.90;6.00;;;;;;;;;;5006570;28;20899;-71
2023/12/16 01:09:20;;;;;;;12.70;6.00;;;;;;;;;;5006563;28;21035;-71
2023/12/16 01:11:47;;;;;;;8.27;5.60;;;;;;;;;;5006162;28;20902;-71
2023/12/16 01:14:14;;;;;;;8.85;5.50;;;;;;;;;;5006237;28;20451;-71
2023/12/16 01:16:41;;;;;;;8.60;5.28;;;;;;;;;;5004066;28;20412;-71
2023/12/16 01:19:08;;;;;;;9.95;5.50;;;;;;;;;;5006603;28;20587;-71
2023/12/16 01:21:42;;;;;;;11.02;5.40;;;;;;;;;;5003853;28;20423;-71
2023/12/16 01:24:09;;;;;;;11.25;6.05;;;;;;;;;;5001497;28;20844;-71
2023/12/16 01:26:36;;;;;;;9.25;6.13;;;;;;;;;;5006541;28;20436;-72
2023/12/16 01:29:04;;;;;;;9.17;6.17;;;;;;;;;;5005833;28;20515;-71
2023/12/16 01:31:31;;;;;;;10.32;6.43;;;;;;;;;;5005689;28;20499;-71
2023/12/16 01:33:58;;;;;;;10.50;6.13;;;;;;;;;;5005345;28;20487;-71
2023/12/16 01:36:24;;;;;;;9.48;5.70;;;;;;;;;;5004785;28;20450;-71
2023/12/16 01:38:52;;;;;;;9.70;5.70;;;;;;;;;;5005801;28;20508;-71
2023/12/16 01:41:19;;;;;;;8.98;5.65;;;;;;;;;;4997590;28;20422;-71
2023/12/16 01:43:47;;;;;;;9.90;5.70;;;;;;;;;;4999031;28;20750;-71
2023/12/16 01:46:14;;;;;;;11.35;6.30;;;;;;;;;;5002634;28;20436;-70
2023/12/16 01:48:42;;;;;;;8.00;6.00;;;;;;;;;;4998496;28;20424;-71
2023/12/16 01:51:09;;;;;;;10.30;6.00;;;;;;;;;;5005931;28;20439;-71
2023/12/16 01:53:36;;;;;;;10.05;6.60;;;;;;;;;;4997032;28;20418;-70
2023/12/16 01:56:06;;;;;;;9.60;6.15;;;;;;;;;;5005279;28;20413;-71
2023/12/16 01:58:33;;;;;;;9.80;6.43;;;;;;;;;;5005611;28;20424;-71
2023/12/16 02:01:00;;;;;;;8.63;5.63;;;;;;;;;;4998839;28;20762;-71
2023/12/16 02:03:29;;;;;;;10.07;5.40;;;;;;;;;;5002495;28;20827;-71
2023/12/16 02:05:56;;;;;;;8.52;5.43;;;;;;;;;;5004746;28;20509;-71
2023/12/16 02:08:24;;;;;;;10.37;5.57;;;;;;;;;;4995447;28;20499;-71
2023/12/16 02:10:51;;;;;;;8.70;4.93;;;;;;;;;;5005388;28;20456;-73
2023/12/16 02:13:22;;;;;;;11.48;6.13;;;;;;;;;;5005584;28;20851;-71
2023/12/16 02:15:50;;;;;;;8.55;5.10;;;;;;;;;;5002709;28;20878;-71
2023/12/16 02:18:17;;;;;;;10.23;5.90;;;;;;;;;;5005654;28;20867;-71
2023/12/16 02:20:46;;;;;;;9.57;6.00;;;;;;;;;;5005398;28;20491;-71
2023/12/16 02:23:16;;;;;;;10.70;6.30;;;;;;;;;;4999894;28;20428;-71
2023/12/16 02:25:43;;;;;;;10.00;5.88;;;;;;;;;;5004701;28;20776;-71
2023/12/16 02:28:10;;;;;;;10.68;5.80;;;;;;;;;;5004513;28;20495;-71
2023/12/16 02:30:37;;;;;;;9.02;5.40;;;;;;;;;;5004445;28;20764;-71
2023/12/16 02:33:04;;;;;;;11.55;6.25;;;;;;;;;;5005647;28;20430;-71
2023/12/16 02:35:31;;;;;;;12.57;6.47;;;;;;;;;;5003931;28;20428;-70
2023/12/16 02:37:58;;;;;;;12.32;5.70;;;;;;;;;;5003809;28;20443;-71
2023/12/16 02:40:26;;;;;;;9.18;4.80;;;;;;;;;;5003327;28;20496;-71
2023/12/16 02:42:53;;;;;;;9.63;5.03;;;;;;;;;;5004741;28;20416;-71
2023/12/16 02:45:20;;;;;;;7.40;5.50;;;;;;;;;;5000815;28;20440;-71
2023/12/16 02:47:48;;;;;;;9.45;4.97;;;;;;;;;;5018073;28;20476;-72
2023/12/16 02:50:15;;;;;;;7.90;5.25;;;;;;;;;;5007155;28;20424;-70
2023/12/16 02:52:42;;;;;;;7.63;4.60;;;;;;;;;;5003848;28;20473;-72
2023/12/16 02:55:09;;;;;;;9.23;5.47;;;;;;;;;;5002141;28;20433;-71
2023/12/16 02:57:37;;;;;;;7.65;4.97;;;;;;;;;;5001434;28;20443;-71
2023/12/16 03:00:06;;;;;;;8.95;5.05;;;;;;;;;;5004820;28;20412;-71
2023/12/16 03:02:33;;;;;;;7.25;4.70;;;;;;;;;;5004247;28;20523;-71
2023/12/16 03:05:00;;;;;;;6.70;4.30;;;;;;;;;;5003190;28;20436;-70
2023/12/16 03:07:27;;;;;;;5.93;4.10;;;;;;;;;;5003792;28;20890;-71
2023/12/16 03:09:54;;;;;;;8.30;4.80;;;;;;;;;;5004083;28;20413;-71
2023/12/16 03:12:24;;;;;;;8.10;4.32;;;;;;;;;;5004279;28;20444;-71
2023/12/16 03:14:52;;;;;;;8.82;4.40;;;;;;;;;;4996321;28;20523;-71
2023/12/16 03:17:19;;;;;;;8.70;4.47;;;;;;;;;;5002390;28;20859;-71
2023/12/16 03:19:47;;;;;;;11.20;4.97;;;;;;;;;;5003011;28;20548;-71
2023/12/16 03:22:14;;;;;;;7.70;4.40;;;;;;;;;;5006995;28;20480;-71
2023/12/16 03:24:41;;;;;;;8.35;4.35;;;;;;;;;;5005624;28;20484;-70
2023/12/16 03:27:08;;;;;;;8.07;4.15;;;;;;;;;;5003006;28;20428;-71
2023/12/16 03:29:35;;;;;;;7.38;4.40;;;;;;;;;;5002815;28;20512;-71
2023/12/16 03:32:04;;;;;;;7.72;4.30;;;;;;;;;;5003407;28;20419;-72
2023/12/16 03:34:32;;;;;;;10.50;4.57;;;;;;;;;;5003376;28;20417;-71
2023/12/16 03:36:59;;;;;;;7.75;4.63;;;;;;;;;;5004040;28;20740;-71
2023/12/16 03:39:26;;;;;;;7.80;4.63;;;;;;;;;;5002827;28;20428;-72
2023/12/16 03:41:53;;;;;;;8.40;4.80;;;;;;;;;;4996662;28;20416;-71
2023/12/16 03:44:20;;;;;;;8.32;4.60;;;;;;;;;;5003167;28;20876;-72
2023/12/16 03:46:47;;;;;;;8.48;4.60;;;;;;;;;;4988183;28;20440;-71
2023/12/16 03:49:16;;;;;;;6.10;4.75;;;;;;;;;;5004484;28;20409;-71
2023/12/16 03:51:43;;;;;;;6.15;4.20;;;;;;;;;;4998200;28;20733;-71
2023/12/16 03:54:10;;;;;;;7.60;3.97;;;;;;;;;;5001980;28;20647;-72
2023/12/16 03:56:37;;;;;;;9.30;4.88;;;;;;;;;;5007665;28;20449;-71
2023/12/16 03:59:05;;;;;;;8.00;4.20;;;;;;;;;;5007836;28;20427;-71
2023/12/16 04:01:32;;;;;;;11.20;4.95;;;;;;;;;;5006007;28;20444;-71
2023/12/16 04:03:59;;;;;;;7.15;3.83;;;;;;;;;;5007627;28;20409;-71
2023/12/16 04:06:27;;;;;;;7.35;3.80;;;;;;;;;;5002180;28;20429;-71
2023/12/16 04:08:54;;;;;;;7.90;4.30;;;;;;;;;;5007994;28;20416;-71
2023/12/16 04:11:22;;;;;;;8.13;3.88;;;;;;;;;;5007129;28;20721;-73
2023/12/16 04:13:48;;;;;;;7.25;3.80;;;;;;;;;;5004249;28;20447;-71
2023/12/16 04:16:15;;;;;;;7.82;3.60;;;;;;;;;;5004115;28;20422;-71
2023/12/16 04:18:43;;;;;;;6.32;3.30;;;;;;;;;;5007673;28;20443;-71
2023/12/16 04:21:10;;;;;;;8.00;3.73;;;;;;;;;;5007970;28;20494;-71
2023/12/16 04:23:38;;;;;;;9.63;4.03;;;;;;;;;;5006112;28;20412;-71
2023/12/16 04:26:05;;;;;;;7.20;3.70;;;;;;;;;;5005425;28;20455;-73
2023/12/16 04:28:32;;;;;;;8.80;4.53;;;;;;;;;;5007021;28;20417;-72
2023/12/16 04:30:59;;;;;;;9.50;3.60;;;;;;;;;;5006519;28;20444;-72
2023/12/16 04:33:26;;;;;;;8.10;3.63;;;;;;;;;;5006057;28;20416;-71
2023/12/16 04:35:53;;;;;;;7.70;3.60;;;;;;;;;;5003992;28;20422;-72
2023/12/16 04:38:20;;;;;;;8.68;3.80;;;;;;;;;;5006877;28;20417;-71
2023/12/16 04:40:49;;;;;;;7.47;3.75;;;;;;;;;;5005738;28;20417;-72
2023/12/16 04:43:16;;;;;;;9.35;4.30;;;;;;;;;;5005693;28;20421;-71
2023/12/16 04:45:43;;;;;;;9.18;4.00;;;;;;;;;;5000131;28;20436;-71
2023/12/16 04:48:10;;;;;;;5.97;3.60;;;;;;;;;;5006756;28;20416;-71
2023/12/16 04:50:37;;;;;;;6.72;3.70;;;;;;;;;;5006163;28;20416;-71
2023/12/16 04:53:04;;;;;;;9.52;4.28;;;;;;;;;;5007024;28;20432;-71
2023/12/16 04:55:31;;;;;;;5.57;3.90;;;;;;;;;;5007066;28;20440;-71
2023/12/16 04:57:59;;;;;;;10.20;4.30;;;;;;;;;;5005762;28;20868;-71
2023/12/16 05:00:26;;;;;;;8.37;3.70;;;;;;;;;;5006357;28;21017;-71
2023/12/16 05:02:53;;;;;;;9.32;3.35;;;;;;;;;;5001581;28;20596;-71
2023/12/16 05:05:20;;;;;;;7.28;3.30;;;;;;;;;;5006993;28;20435;-71
2023/12/16 05:07:47;;;;;;;6.85;3.30;;;;;;;;;;5006147;28;20735;-71
2023/12/16 05:10:14;;;;;;;7.57;3.10;;;;;;;;;;5002634;28;20531;-71
2023/12/16 05:12:42;;;;;;;6.05;3.60;;;;;;;;;;5003274;28;20424;-70
2023/12/16 05:15:11;;;;;;;5.55;3.10;;;;;;;;;;5002141;28;20882;-71
2023/12/16 05:17:38;;;;;;;5.85;3.25;;;;;;;;;;5006188;28;20807;-71
2023/12/16 05:20:06;;;;;;;5.93;3.25;;;;;;;;;;5009601;28;20872;-71
2023/12/16 05:22:33;;;;;;;5.45;3.10;;;;;;;;;;5008619;28;20417;-71
2023/12/16 05:25:01;;;;;;;6.78;2.80;;;;;;;;;;5009761;28;20498;-72
2023/12/16 05:27:28;;;;;;;7.28;3.53;;;;;;;;;;5009765;28;20432;-71
2023/12/16 05:29:55;;;;;;;6.68;3.20;;;;;;;;;;5000216;28;20408;-71
2023/12/16 05:32:24;;;;;;;5.80;2.85;;;;;;;;;;5006692;28;20444;-71
2023/12/16 05:34:51;;;;;;;6.43;2.72;;;;;;;;;;4998199;28;20841;-71
2023/12/16 05:37:18;;;;;;;7.10;2.90;;;;;;;;;;5005810;28;20512;-71
2023/12/16 05:39:45;;;;;;;4.97;2.60;;;;;;;;;;5006309;28;20433;-71
2023/12/16 05:42:12;;;;;;;5.32;2.65;;;;;;;;;;5004474;28;20420;-71
2023/12/16 05:44:39;;;;;;;8.80;3.33;;;;;;;;;;5005112;28;20435;-71
2023/12/16 05:47:07;;;;;;;8.77;2.85;;;;;;;;;;5005026;28;20477;-71
2023/12/16 05:49:36;;;;;;;5.13;3.00;;;;;;;;;;5006122;28;20495;-72
2023/12/16 05:52:04;;;;;;;5.57;2.70;;;;;;;;;;5005541;28;20482;-71
2023/12/16 05:54:31;;;;;;;4.80;2.40;;;;;;;;;;5005748;28;20501;-71
2023/12/16 05:56:58;;;;;;;7.90;3.00;;;;;;;;;;5004885;28;20836;-70
2023/12/16 05:59:25;;;;;;;5.57;2.80;;;;;;;;;;5006012;28;20427;-71
2023/12/16 06:01:52;;;;;;;5.20;2.60;;;;;;;;;;5006115;28;20888;-70
2023/12/16 06:04:19;;;;;;;6.32;3.20;;;;;;;;;;5006428;28;20420;-71
2023/12/16 06:06:47;;;;;;;5.70;2.60;;;;;;;;;;5004065;28;20432;-70
2023/12/16 06:09:14;;;;;;;5.17;2.70;;;;;;;;;;5005861;28;20864;-72
2023/12/16 06:11:41;;;;;;;6.22;2.63;;;;;;;;;;5005469;28;20926;-69
2023/12/16 06:14:08;;;;;;;6.43;2.60;;;;;;;;;;4997581;28;20412;-68
2023/12/16 06:16:35;;;;;;;5.78;2.60;;;;;;;;;;4996496;28;20421;-68
2023/12/16 06:19:03;;;;;;;5.30;2.90;;;;;;;;;;5006141;28;20923;-68
2023/12/16 06:21:33;;;;;;;7.85;3.80;;;;;;;;;;5005691;28;20416;-69
2023/12/16 06:24:02;;;;;;;5.70;2.90;;;;;;;;;;5005923;28;20494;-68
2023/12/16 06:26:29;;;;;;;7.05;3.10;;;;;;;;;;5004197;28;20528;-68
2023/12/16 06:28:56;;;;;;;5.70;3.15;;;;;;;;;;5005178;28;20444;-68
2023/12/16 06:31:23;;;;;;;6.13;2.95;;;;;;;;;;5005544;28;20413;-68
2023/12/16 06:33:50;;;;;;;5.63;2.50;;;;;;;;;;4998995;28;20803;-69
2023/12/16 06:36:17;;;;;;;5.57;2.65;;;;;;;;;;5001529;28;20412;-69
2023/12/16 06:38:44;;;;;;;5.70;2.92;;;;;;;;;;4995204;28;20418;-69
2023/12/16 06:41:13;;;;;;;9.50;3.42;;;;;;;;;;5004898;28;20465;-68
2023/12/16 06:43:40;;;;;;;5.65;2.67;;;;;;;;;;5005689;28;20883;-70
2023/12/16 06:46:07;;;;;;;6.13;2.70;;;;;;;;;;5003693;28;20448;-68
2023/12/16 06:48:35;;;;;;;6.93;2.97;;;;;;;;;;5004927;28;20570;-69
2023/12/16 06:51:03;;;;;;;5.43;2.70;;;;;;;;;;4998658;28;20462;-68
2023/12/16 06:53:30;;;;;;;5.93;3.20;;;;;;;;;;5004880;28;20543;-68
2023/12/16 06:55:57;;;;;;;6.78;3.20;;;;;;;;;;5006577;28;20517;-67
2023/12/16 06:58:26;;;;;;;7.15;3.10;;;;;;;;;;5004747;28;20416;-68
2023/12/16 07:00:53;;;;;;;6.90;3.50;;;;;;;;;;4992911;28;20461;-69
2023/12/16 07:03:20;;;;;;;7.97;3.78;;;;;;;;;;5003339;28;20418;-67
2023/12/16 07:05:47;;;;;;;6.97;3.00;;;;;;;;;;4996405;28;20859;-68
2023/12/16 07:08:14;;;;;;;5.60;3.10;;;;;;;;;;5004831;28;20451;-68
2023/12/16 07:10:41;;;;;;;4.85;2.50;;;;;;;;;;5005282;28;20416;-68
2023/12/16 07:13:08;;;;;;;6.75;3.40;;;;;;;;;;4998610;28;20416;-68
2023/12/16 07:15:37;;;;;;;6.40;2.80;;;;;;;;;;5004333;28;20883;-69
2023/12/16 07:18:04;;;;;;;9.07;4.10;;;;;;;;;;5004968;28;20413;-68
2023/12/16 07:20:31;;;;;;;6.38;3.30;;;;;;;;;;5003679;28;20421;-68
2023/12/16 07:22:58;;;;;;;4.82;3.10;;;;;;;;;;5005757;28;20431;-69
2023/12/16 07:25:25;;;;;;;8.77;3.10;;;;;;;;;;5007720;28;20417;-68
2023/12/16 07:27:52;;;;;;;6.57;3.00;;;;;;;;;;5001609;28;20436;-69
2023/12/16 07:30:19;;;;;;;6.93;3.05;;;;;;;;;;5010329;28;20424;-69
2023/12/16 07:32:48;;;;;;;7.72;3.38;;;;;;;;;;5009774;28;20864;-69
2023/12/16 07:35:15;;;;;;;5.50;2.92;;;;;;;;;;5010318;28;20926;-69
2023/12/16 07:37:42;;;;;;;7.47;3.38;;;;;;;;;;5008489;28;20413;-68
2023/12/16 07:40:10;;;;;;;9.38;3.45;;;;;;;;;;5009442;28;20412;-69
2023/12/16 07:42:37;;;;;;;6.32;3.10;;;;;;;;;;5009749;28;20538;-69
2023/12/16 07:45:05;;;;;;;7.00;3.08;;;;;;;;;;5004486;28;20576;-69
2023/12/16 07:47:32;;;;;;;8.13;3.40;;;;;;;;;;5010155;28;20872;-69
2023/12/16 07:50:00;;;;;;;6.75;4.18;;;;;;;;;;5005854;28;20881;-70
2023/12/16 07:52:27;;;;;;;9.98;4.10;;;;;;;;;;5003450;28;20423;-69
2023/12/16 07:54:55;;;;;;;7.45;3.53;;;;;;;;;;5003360;28;20961;-68
2023/12/16 07:57:22;;;;;;;9.57;3.78;;;;;;;;;;5006699;28;20416;-69
2023/12/16 07:59:49;;;;;;;7.18;3.15;;;;;;;;;;5007964;28;20424;-68
2023/12/16 08:02:16;;;;;;;8.02;3.55;;;;;;;;;;5008844;28;20489;-69
2023/12/16 08:04:43;;;;;;;6.00;3.40;;;;;;;;;;5000679;28;20421;-69
2023/12/16 08:07:11;;;;;;;7.70;4.00;;;;;;;;;;5008207;28;20433;-69
2023/12/16 08:09:38;;;;;;;7.55;3.72;;;;;;;;;;5008207;28;20443;-69
2023/12/16 08:12:06;;;;;;;7.00;3.67;;;;;;;;;;5006077;28;20444;-69
2023/12/16 08:14:33;;;;;;;7.20;3.67;;;;;;;;;;5010936;28;20864;-68
2023/12/16 08:17:01;;;;;;;7.80;3.88;;;;;;;;;;5008954;28;20435;-69
2023/12/16 08:19:28;;;;;;;7.13;3.53;;;;;;;;;;5004911;28;20535;-68
2023/12/16 08:21:55;;;;;;;7.43;3.40;;;;;;;;;;5000905;28;20909;-68
2023/12/16 08:24:23;;;;;;;8.80;4.13;;;;;;;;;;5008092;28;20420;-69
2023/12/16 08:26:50;;;;;;;7.32;3.55;;;;;;;;;;5006960;28;20803;-68
2023/12/16 08:29:18;;;;;;;6.13;3.45;;;;;;;;;;5007128;28;20737;-68
2023/12/16 08:31:46;;;;;;;9.60;4.40;;;;;;;;;;5006634;28;20756;-67
2023/12/16 08:34:13;;;;;;;7.20;3.60;;;;;;;;;;5005929;28;20562;-68
2023/12/16 08:36:41;;;;;;;7.82;3.70;;;;;;;;;;5006344;28;20512;-69
2023/12/16 08:39:08;;;;;;;6.55;3.60;;;;;;;;;;5007003;28;20459;-67
2023/12/16 08:41:36;;;;;;;6.80;3.60;;;;;;;;;;5007905;28;20518;-68
2023/12/16 08:44:04;;;;;;;6.43;3.90;;;;;;;;;;4996004;28;20456;-68
2023/12/16 08:46:31;;;;;;;5.57;3.25;;;;;;;;;;5006555;28;20428;-68
2023/12/16 08:48:58;;;;;;;6.13;3.35;;;;;;;;;;4999538;28;20441;-68
2023/12/16 08:51:25;;;;;;;7.93;3.55;;;;;;;;;;5003310;28;20756;-67
2023/12/16 08:53:53;;;;;;;5.40;3.50;;;;;;;;;;5007606;28;20431;-68
2023/12/16 08:56:20;;;;;;;6.60;3.60;;;;;;;;;;4998251;28;20413;-68
2023/12/16 08:58:48;;;;;;;6.80;3.60;;;;;;;;;;5007183;28;20963;-68
2023/12/16 09:01:15;;;;;;;7.63;3.33;;;;;;;;;;5005851;28;20417;-64
2023/12/16 09:03:43;;;;;;;6.50;3.65;;;;;;;;;;5005179;28;20791;-64
2023/12/16 09:06:10;;;;;;;7.70;3.30;;;;;;;;;;5003711;28;20435;-64
2023/12/16 09:08:38;;;;;;;6.97;3.60;;;;;;;;;;5005872;28;20535;-64
2023/12/16 09:11:06;;;;;;;9.98;3.42;;;;;;;;;;5005955;28;20416;-67
2023/12/16 09:13:33;;;;;;;7.63;3.50;;;;;;;;;;5006826;28;20591;-67
2023/12/16 09:16:01;;;;;;;6.82;3.00;;;;;;;;;;5005768;28;20424;-68
2023/12/16 09:18:28;;;;;;;7.93;4.07;;;;;;;;;;4999491;28;20425;-66
2023/12/16 09:20:55;;;;;;;6.15;2.97;;;;;;;;;;4995561;28;20420;-67
2023/12/16 09:23:22;;;;;;;8.90;3.10;;;;;;;;;;5009103;28;20516;-68
2023/12/16 09:25:50;;;;;;;5.18;2.75;;;;;;;;;;5010765;28;20516;-67
2023/12/16 09:28:17;;;;;;;7.32;3.20;;;;;;;;;;5002376;28;20428;-69
2023/12/16 09:30:44;;;;;;;5.07;3.20;;;;;;;;;;5005216;28;20553;-69
2023/12/16 09:33:12;;;;;;;6.50;3.17;;;;;;;;;;4998024;28;20419;-68
2023/12/16 09:35:39;;;;;;;7.55;3.92;;;;;;;;;;5006538;28;20421;-68
2023/12/16 09:38:06;;;;;;;6.80;3.30;;;;;;;;;;5006825;28;20412;-69
2023/12/16 09:40:33;;;;;;;5.60;2.80;;;;;;;;;;5006072;28;20855;-68
2023/12/16 09:43:06;;;;;;;7.25;3.22;;;;;;;;;;4999484;28;20915;-67
2023/12/16 09:45:34;;;;;;;7.13;2.83;;;;;;;;;;4998234;28;20456;-63
2023/12/16 09:48:01;;;;;;;9.15;3.53;;;;;;;;;;5006083;28;20428;-68
2023/12/16 09:50:31;;;;;;;5.43;3.00;;;;;;;;;;5004942;28;20779;-68
2023/12/16 09:52:59;;;;;;;5.78;3.10;;;;;;;;;;4997841;28;20863;-68
2023/12/16 09:55:26;;;;;;;7.33;2.90;;;;;;;;;;5008468;28;20457;-67
2023/12/16 09:57:54;;;;;;;5.65;3.00;;;;;;;;;;5004716;28;20420;-67
2023/12/16 10:00:22;;;;;;;6.25;3.03;;;;;;;;;;5004355;28;20480;-67
2023/12/16 10:02:51;;;;;;;6.30;2.90;;;;;;;;;;5004268;28;21183;-67
2023/12/16 10:05:19;;;;;;;6.32;2.83;;;;;;;;;;4999196;28;20836;-67
2023/12/16 10:07:47;;;;;;;6.43;2.60;;;;;;;;;;5004111;28;20966;-67
2023/12/16 10:10:15;;;;;;;7.72;3.15;;;;;;;;;;5005724;28;20421;-67
2023/12/16 10:12:42;;;;;;;7.45;2.92;;;;;;;;;;5004409;28;20424;-67
2023/12/16 10:15:10;;;;;;;7.00;3.20;;;;;;;;;;5005187;28;20792;-67
2023/12/16 10:17:37;;;;;;;6.32;2.90;;;;;;;;;;5004379;28;20420;-67
2023/12/16 10:20:05;;;;;;;7.47;3.03;;;;;;;;;;5005791;28;20412;-68
2023/12/16 10:22:32;;;;;;;6.20;2.85;;;;;;;;;;5005480;28;20472;-67
2023/12/16 10:25:00;;;;;;;7.25;3.20;;;;;;;;;;5005218;28;20423;-67
2023/12/16 10:27:27;;;;;;;6.38;3.03;;;;;;;;;;5004528;28;20444;-67
2023/12/16 10:29:54;;;;;;;7.68;3.00;;;;;;;;;;5005018;28;20443;-67
2023/12/16 10:32:22;;;;;;;6.05;3.50;;;;;;;;;;5003976;28;20421;-68
2023/12/16 10:34:49;;;;;;;9.20;2.90;;;;;;;;;;5004013;28;20428;-66
2023/12/16 10:37:16;;;;;;;8.60;3.08;;;;;;;;;;5004963;28;20421;-67
2023/12/16 10:39:43;;;;;;;5.93;2.70;;;;;;;;;;5004107;28;20412;-65
2023/12/16 10:42:11;;;;;;;7.13;2.97;;;;;;;;;;4999740;28;20888;-67
2023/12/16 10:44:38;;;;;;;7.10;3.42;;;;;;;;;;5005271;28;20421;-67
2023/12/16 10:47:07;;;;;;;7.60;3.30;;;;;;;;;;5007952;28;20436;-67
2023/12/16 10:49:36;;;;;;;4.13;2.50;;;;;;;;;;5006493;28;20822;-67
2023/12/16 10:52:06;;;;;;;6.35;2.50;;;;;;;;;;5006081;28;20413;-67
2023/12/16 10:54:34;;;;;;;6.82;2.53;;;;;;;;;;5002742;28;20413;-67
2023/12/16 10:57:07;;;;;;;5.32;2.55;;;;;;;;;;5004621;28;20424;-67
2023/12/16 10:59:40;;;;;;;6.72;3.10;;;;;;;;;;5000104;28;20412;-67
2023/12/16 11:02:11;;;;;;;4.97;2.75;;;;;;;;;;5003818;28;20477;-67
2023/12/16 11:04:39;;;;;;;7.13;3.13;;;;;;;;;;5000666;28;21861;-67
2023/12/16 11:07:07;;;;;;;7.25;3.22;;;;;;;;;;5003988;28;20437;-68
2023/12/16 11:09:34;;;;;;;6.20;2.85;;;;;;;;;;5003441;28;20433;-68
2023/12/16 11:12:02;;;;;;;6.15;2.38;;;;;;;;;;5005452;28;20428;-68
2023/12/16 11:14:30;;;;;;;7.53;2.50;;;;;;;;;;5001569;28;20500;-68
2023/12/16 11:17:07;;;;;;;7.40;2.87;;;;;;;;;;5000654;28;20417;-68
2023/12/16 11:19:37;;;;;;;6.70;3.00;;;;;;;;;;5004363;28;20792;-67
2023/12/16 11:22:04;;;;;;;7.27;3.00;;;;;;;;;;5003062;28;20424;-67
2023/12/16 11:24:40;;;;;;;7.50;2.90;;;;;;;;;;5000841;28;20424;-65
2023/12/16 11:27:07;;;;;;;7.38;3.10;;;;;;;;;;4998082;28;20416;-66
2023/12/16 11:29:35;;;;;;;5.65;2.30;;;;;;;;;;5003023;28;20433;-68
2023/12/16 11:32:04;;;;;;;6.15;2.60;;;;;;;;;;5003510;28;20431;-68
2023/12/16 11:34:44;;;;;;;7.65;2.75;;;;;;;;;;5001779;28;20495;-67
2023/12/16 11:37:12;;;;;;;5.35;2.30;;;;;;;;;;4997815;28;20422;-67
2023/12/16 11:39:40;;;;;;;5.75;2.35;;;;;;;;;;4999122;28;20425;-68
2023/12/16 11:42:08;;;;;;;6.50;2.30;;;;;;;;;;5000685;28;20452;-69
2023/12/16 11:44:48;;;;;;;6.47;2.28;;;;;;;;;;5003329;28;20413;-68
2023/12/16 11:47:21;;;;;;;7.93;2.63;;;;;;;;;;4999452;28;20424;-68
2023/12/16 11:49:49;;;;;;;7.97;2.38;;;;;;;;;;5001214;28;20433;-68
2023/12/16 11:52:16;;;;;;;5.80;2.40;;;;;;;;;;5002536;28;20424;-67
2023/12/16 11:54:44;;;;;;;6.07;2.58;;;;;;;;;;4991657;28;20530;-68
2023/12/16 11:57:11;;;;;;;11.07;2.90;;;;;;;;;;4991942;28;20428;-68
2023/12/16 11:59:38;;;;;;;8.00;2.83;;;;;;;;;;4997156;28;20519;-68
2023/12/16 12:02:07;;;;;;;6.50;2.83;;;;;;;;;;4992217;28;20523;-68
2023/12/16 12:04:36;;;;;;;5.40;2.40;;;;;;;;;;4999944;28;20460;-68
2023/12/16 12:07:03;;;;;;;7.30;2.45;;;;;;;;;;4996797;28;20432;-67
2023/12/16 12:09:31;;;;;;;8.45;2.70;;;;;;;;;;4999715;28;20437;-66
2023/12/16 12:11:58;;;;;;;7.43;2.90;;;;;;;;;;4997118;28;20544;-67
2023/12/16 12:14:26;;;;;;;8.80;2.58;;;;;;;;;;5001124;28;20428;-68
2023/12/16 12:16:53;;;;;;;8.43;2.50;;;;;;;;;;5000567;28;20467;-67
2023/12/16 12:19:20;;;;;;;8.02;2.58;;;;;;;;;;5003520;28;20464;-68
2023/12/16 12:21:49;;;;;;;7.13;2.50;;;;;;;;;;4996052;28;20434;-68
2023/12/16 12:24:16;;;;;;;8.15;2.70;;;;;;;;;;5000228;28;20664;-68
2023/12/16 12:26:44;;;;;;;8.90;2.90;;;;;;;;;;4999829;28;20603;-67
2023/12/16 12:29:11;;;;;;;10.27;2.95;;;;;;;;;;4998897;28;20533;-68
2023/12/16 12:31:48;;;;;;;5.82;2.63;;;;;;;;;;5003380;28;20436;-68
2023/12/16 12:34:19;;;;;;;11.50;3.15;;;;;;;;;;5002691;28;20960;-66
2023/12/16 12:36:46;;;;;;;8.20;2.28;;;;;;;;;;4998939;28;20452;-68
2023/12/16 12:39:17;;;;;;;6.72;2.80;;;;;;;;;;5002914;28;20432;-68
2023/12/16 12:41:44;;;;;;;8.23;2.20;;;;;;;;;;5003176;28;20428;-68
2023/12/16 12:44:11;;;;;;;7.43;2.50;;;;;;;;;;5004780;28;20749;-67
2023/12/16 12:46:48;;;;;;;8.93;2.90;;;;;;;;;;5003153;28;20428;-68
2023/12/16 12:49:16;;;;;;;8.13;2.70;;;;;;;;;;5006157;28;20443;-66
2023/12/16 12:51:49;;;;;;;8.98;2.97;;;;;;;;;;5006550;28;20429;-67
2023/12/16 12:54:20;;;;;;;8.32;2.85;;;;;;;;;;5005874;28;20756;-68
2023/12/16 12:56:47;;;;;;;6.47;2.50;;;;;;;;;;5000825;28;20436;-68
2023/12/16 12:59:14;;;;;;;6.05;2.30;;;;;;;;;;5001885;28;20433;-68
2023/12/16 13:01:41;;;;;;;11.20;3.00;;;;;;;;;;4999524;28;20437;-67
2023/12/16 13:04:08;;;;;;;7.70;2.90;;;;;;;;;;5003840;28;20440;-68
2023/12/16 13:06:35;;;;;;;9.80;3.10;;;;;;;;;;5005575;28;20428;-70
2023/12/16 13:09:04;;;;;;;10.05;3.13;;;;;;;;;;5001644;28;20921;-68
2023/12/16 13:11:32;;;;;;;8.77;2.80;;;;;;;;;;4999094;28;20774;-68
2023/12/16 13:13:59;;;;;;;6.83;2.70;;;;;;;;;;4997274;28;20417;-68
2023/12/16 13:16:27;;;;;;;8.63;2.78;;;;;;;;;;5002468;28;21160;-67
2023/12/16 13:18:54;;;;;;;10.40;2.80;;;;;;;;;;5001756;28;20435;-68
2023/12/16 13:21:21;;;;;;;6.88;2.72;;;;;;;;;;5004438;28;20421;-67
2023/12/16 13:23:47;;;;;;;8.68;2.88;;;;;;;;;;5008745;28;20588;-68
2023/12/16 13:26:14;;;;;;;9.68;3.28;;;;;;;;;;5005884;28;20516;-68
2023/12/16 13:28:43;;;;;;;7.53;2.90;;;;;;;;;;5005954;28;20429;-67
2023/12/16 13:31:10;;;;;;;9.23;2.60;;;;;;;;;;5003374;28;20428;-67
2023/12/16 13:33:38;;;;;;;6.40;2.90;;;;;;;;;;5001961;28;20417;-68
2023/12/16 13:36:05;;;;;;;7.93;3.00;;;;;;;;;;4996647;28;20423;-68
2023/12/16 13:38:32;;;;;;;9.63;3.20;;;;;;;;;;5003533;28;20417;-68
2023/12/16 13:40:59;;;;;;;9.55;2.72;;;;;;;;;;5003447;28;20412;-65
2023/12/16 13:43:26;;;;;;;7.97;2.92;;;;;;;;;;4998476;28;20800;-68
2023/12/16 13:45:54;;;;;;;7.45;3.10;;;;;;;;;;5002054;28;20435;-68
2023/12/16 13:48:22;;;;;;;7.10;2.70;;;;;;;;;;5003226;28;20413;-68
2023/12/16 13:50:49;;;;;;;7.47;2.80;;;;;;;;;;5003640;28;20471;-68
2023/12/16 13:53:16;;;;;;;9.85;2.85;;;;;;;;;;5002445;28;20421;-67
2023/12/16 13:55:43;;;;;;;6.88;2.63;;;;;;;;;;5007488;28;20421;-67
2023/12/16 13:58:10;;;;;;;7.60;2.88;;;;;;;;;;5003707;28;20448;-67
2023/12/16 14:00:37;;;;;;;7.97;2.60;;;;;;;;;;5004104;28;20698;-68
2023/12/16 14:03:05;;;;;;;6.20;2.67;;;;;;;;;;5001866;28;20528;-67
2023/12/16 14:05:32;;;;;;;8.02;3.10;;;;;;;;;;5003834;28;20475;-68
2023/12/16 14:08:00;;;;;;;7.50;2.70;;;;;;;;;;5001808;28;20428;-68
2023/12/16 14:10:27;;;;;;;8.52;2.97;;;;;;;;;;5004961;28;20436;-67
2023/12/16 14:12:54;;;;;;;12.55;3.22;;;;;;;;;;5001797;28;20433;-68
2023/12/16 14:15:21;;;;;;;8.50;2.88;;;;;;;;;;4996562;28;20424;-67
2023/12/16 14:17:48;;;;;;;7.60;2.80;;;;;;;;;;5001944;28;20440;-70
2023/12/16 14:20:16;;;;;;;6.75;2.60;;;;;;;;;;5004809;28;20481;-68
2023/12/16 14:22:43;;;;;;;9.45;2.72;;;;;;;;;;4998358;28;24758;-67
2023/12/16 14:25:11;;;;;;;8.10;2.90;;;;;;;;;;4999436;28;20474;-66
2023/12/16 14:27:38;;;;;;;7.80;3.00;;;;;;;;;;4995627;28;20552;-67
2023/12/16 14:30:06;;;;;;;8.10;3.22;;;;;;;;;;5003050;28;20455;-67
2023/12/16 14:32:33;;;;;;;7.70;2.73;;;;;;;;;;5009374;28;20450;-66
2023/12/16 14:35:02;;;;;;;7.80;3.00;;;;;;;;;;5013652;28;20432;-67
2023/12/16 14:37:30;;;;;;;5.88;2.70;;;;;;;;;;5006604;28;20448;-66
2023/12/16 14:39:57;;;;;;;6.80;2.50;;;;;;;;;;5007885;28;20443;-68
2023/12/16 14:42:24;;;;;;;8.40;2.90;;;;;;;;;;4996831;28;20465;-67